Time;durP1;ratioP1;P1;durP2;ratioP2;P2;SDS_P1;SDS_P2;PMS_P1;PMS_P2;Temp;Humidity;BMP_temperature;BMP_pressure;BME280_temperature;BME280_humidity;BME280_pressure;Samples;Min_cycle;Max_cycle;Signal;HPM_P1;HPM_P2
2021/03/20 05:53:52;;;;;;;8.05;4.57;;;;;;;;;;5098636;28;20381;-77
2021/03/20 05:56:20;;;;;;;6.78;4.13;;;;;;;;;;5071181;28;20482;-77
2021/03/20 06:06:04;;;;;;;6.22;3.70;;;;;;;;;;5095700;28;20758;-77
2021/03/20 06:08:35;;;;;;;7.00;3.55;;;;;;;;;;5076432;28;20028;-75
2021/03/20 06:11:14;;;;;;;5.85;3.63;;;;;;;;;;5075697;28;20040;-76
2021/03/20 06:13:59;;;;;;;9.55;4.18;;;;;;;;;;5054263;28;20070;-76
2021/03/20 06:16:29;;;;;;;7.72;3.92;;;;;;;;;;5059015;28;20031;-77
2021/03/20 06:19:03;;;;;;;6.50;3.88;;;;;;;;;;5059260;28;20461;-77
2021/03/20 06:21:35;;;;;;;9.52;4.25;;;;;;;;;;5053057;28;20028;-77
2021/03/20 06:24:14;;;;;;;6.70;3.97;;;;;;;;;;5043672;28;20017;-77
2021/03/20 06:26:40;;;;;;;10.18;4.63;;;;;;;;;;5055563;28;20477;-77
2021/03/20 06:29:12;;;;;;;6.35;3.80;;;;;;;;;;5062851;28;20373;-77
2021/03/20 06:31:47;;;;;;;7.40;4.55;;;;;;;;;;5055375;28;20103;-76
2021/03/20 06:34:15;;;;;;;7.03;4.55;;;;;;;;;;5063504;28;20028;-76
2021/03/20 06:36:43;;;;;;;7.15;4.40;;;;;;;;;;5055348;28;20041;-76
2021/03/20 06:39:21;;;;;;;8.10;4.45;;;;;;;;;;5055026;28;20087;-77
2021/03/20 06:41:57;;;;;;;7.10;4.30;;;;;;;;;;5046694;28;20048;-79
2021/03/20 06:44:23;;;;;;;6.88;4.20;;;;;;;;;;5056616;28;20021;-80
2021/03/20 06:46:50;;;;;;;8.98;5.00;;;;;;;;;;5048396;28;20422;-81
2021/03/20 06:49:27;;;;;;;8.95;4.47;;;;;;;;;;5031699;28;20014;-80
2021/03/20 06:51:54;;;;;;;6.60;4.13;;;;;;;;;;5032733;28;20025;-80
2021/03/20 06:54:21;;;;;;;9.05;4.57;;;;;;;;;;5047301;28;20022;-80
2021/03/20 06:56:48;;;;;;;8.02;4.18;;;;;;;;;;5052797;28;20025;-81
2021/03/20 06:59:13;;;;;;;8.40;5.15;;;;;;;;;;5057155;28;20017;-80
2021/03/20 07:01:50;;;;;;;9.23;5.22;;;;;;;;;;5055710;28;20541;-80
2021/03/20 07:04:19;;;;;;;12.00;6.03;;;;;;;;;;5056083;28;20029;-80
2021/03/20 07:06:57;;;;;;;11.82;6.35;;;;;;;;;;5062099;28;20063;-80
2021/03/20 07:09:23;;;;;;;12.52;6.97;;;;;;;;;;5056537;28;20060;-80
2021/03/20 07:12:04;;;;;;;11.25;7.55;;;;;;;;;;5053281;28;20107;-80
2021/03/20 07:16:50;;;;;;;13.07;7.43;;;;;;;;;;5109431;27;20383;-79
2021/03/20 07:19:16;;;;;;;15.23;7.88;;;;;;;;;;5123582;28;20040;-79
2021/03/20 07:21:46;;;;;;;11.52;6.80;;;;;;;;;;5115149;27;20103;-80
2021/03/20 07:24:21;;;;;;;12.90;7.60;;;;;;;;;;5117499;28;20684;-79
2021/03/20 07:26:55;;;;;;;36.15;19.52;;;;;;;;;;5095862;28;20430;-80
2021/03/20 07:29:36;;;;;;;21.38;13.77;;;;;;;;;;5119802;28;20030;-81
2021/03/20 07:32:02;;;;;;;15.18;10.50;;;;;;;;;;5114774;28;20035;-82
2021/03/20 07:34:32;;;;;;;14.50;8.85;;;;;;;;;;5123348;28;20023;-81
2021/03/20 07:37:06;;;;;;;10.02;6.10;;;;;;;;;;5104652;28;20027;-82
2021/03/20 07:39:58;;;;;;;45.63;23.30;;;;;;;;;;5098353;28;20016;-80
2021/03/20 07:42:24;;;;;;;;;;;;;;;;;;5100309;28;20031;-80
2021/03/20 07:44:49;;;;;;;28.52;19.15;;;;;;;;;;5106154;28;19923;-81
2021/03/20 07:47:16;;;;;;;26.92;17.02;;;;;;;;;;5101806;28;20361;-81
2021/03/20 07:49:42;;;;;;;16.20;8.55;;;;;;;;;;5106361;28;20367;-81
2021/03/20 07:52:28;;;;;;;39.13;20.88;;;;;;;;;;5106638;28;20049;-81
2021/03/20 07:55:05;;;;;;;25.02;15.13;;;;;;;;;;5105377;28;20044;-81
2021/03/20 07:57:31;;;;;;;14.95;8.80;;;;;;;;;;5101831;28;20043;-81
2021/03/20 07:59:57;;;;;;;12.32;6.72;;;;;;;;;;5102636;28;20024;-82
2021/03/20 08:02:31;;;;;;;6.03;4.03;;;;;;;;;;5107948;28;20031;-81
2021/03/20 08:04:59;;;;;;;9.07;4.53;;;;;;;;;;5100657;28;20495;-80
2021/03/20 08:07:28;;;;;;;6.43;4.30;;;;;;;;;;5126038;28;20114;-81
2021/03/20 08:10:13;;;;;;;6.35;3.88;;;;;;;;;;5107580;28;20028;-82
2021/03/20 08:12:58;;;;;;;7.55;4.38;;;;;;;;;;5115518;28;20480;-81
2021/03/20 08:15:26;;;;;;;5.18;3.42;;;;;;;;;;5120294;28;20026;-81
2021/03/20 08:17:52;;;;;;;5.55;3.70;;;;;;;;;;5122410;28;20041;-81
2021/03/20 08:20:18;;;;;;;6.00;3.47;;;;;;;;;;5112657;28;20027;-81
2021/03/20 08:22:47;;;;;;;5.05;3.40;;;;;;;;;;5104512;28;20036;-81
2021/03/20 08:25:12;;;;;;;6.68;4.50;;;;;;;;;;5111947;28;20479;-81
2021/03/20 08:27:56;;;;;;;6.28;4.15;;;;;;;;;;5094345;28;20062;-81
2021/03/20 08:30:35;;;;;;;11.30;3.85;;;;;;;;;;5095697;28;20040;-81
2021/03/20 08:33:10;;;;;;;6.10;2.92;;;;;;;;;;5102531;28;20028;-81
2021/03/20 08:35:48;;;;;;;6.00;3.53;;;;;;;;;;5097109;28;20037;-81
2021/03/20 08:40:41;;;;;;;9.02;3.47;;;;;;;;;;5073248;28;20360;-81
2021/03/20 08:43:32;;;;;;;6.97;3.17;;;;;;;;;;5046454;28;20022;-81
2021/03/20 08:46:09;;;;;;;6.10;3.63;;;;;;;;;;5048615;28;20025;-80
2021/03/20 08:48:54;;;;;;;4.43;2.65;;;;;;;;;;5045231;28;20079;-81
2021/03/20 08:51:22;;;;;;;5.90;2.85;;;;;;;;;;5054085;28;20026;-81
2021/03/20 08:53:48;;;;;;;7.75;2.80;;;;;;;;;;5047013;28;20075;-80
2021/03/20 08:56:19;;;;;;;6.32;3.15;;;;;;;;;;5048634;28;20022;-80
2021/03/20 09:01:22;;;;;;;5.72;3.75;;;;;;;;;;5104736;27;20443;-81
2021/03/20 09:06:23;;;;;;;5.72;3.53;;;;;;;;;;5113362;27;20401;-79
2021/03/20 09:08:50;;;;;;;6.85;3.67;;;;;;;;;;5116128;28;20036;-80
2021/03/20 09:11:23;;;;;;;8.27;4.57;;;;;;;;;;5120831;28;20016;-80
2021/03/20 09:13:50;;;;;;;6.78;4.25;;;;;;;;;;5120191;28;20421;-80
2021/03/20 09:16:16;;;;;;;6.07;3.90;;;;;;;;;;5115827;28;20019;-80
2021/03/20 09:18:41;;;;;;;7.78;3.70;;;;;;;;;;5127112;28;20459;-80
2021/03/20 09:21:10;;;;;;;6.35;3.33;;;;;;;;;;5113589;28;20037;-80
2021/03/20 09:23:38;;;;;;;6.90;3.53;;;;;;;;;;5112603;28;20023;-81
2021/03/20 09:26:07;;;;;;;6.97;3.42;;;;;;;;;;5112258;27;20036;-80
2021/03/20 09:28:51;;;;;;;5.55;3.28;;;;;;;;;;5115891;28;20015;-80
2021/03/20 09:31:29;;;;;;;7.38;3.00;;;;;;;;;;5116238;28;20097;-80
2021/03/20 09:33:56;;;;;;;4.97;3.10;;;;;;;;;;5105100;28;20028;-80
2021/03/20 09:36:21;;;;;;;5.30;2.83;;;;;;;;;;5114369;28;20037;-80
2021/03/20 09:38:52;;;;;;;5.20;3.15;;;;;;;;;;5106996;28;20028;-78
2021/03/20 09:41:17;;;;;;;5.53;3.00;;;;;;;;;;5112813;28;20020;-81
2021/03/20 09:43:55;;;;;;;4.50;2.80;;;;;;;;;;5117608;27;20023;-79
2021/03/20 09:46:27;;;;;;;5.03;2.60;;;;;;;;;;5115103;28;20073;-80
2021/03/20 09:48:54;;;;;;;4.93;2.30;;;;;;;;;;5104501;28;20027;-80
2021/03/20 09:51:38;;;;;;;4.93;2.15;;;;;;;;;;5125005;28;20036;-80
2021/03/20 09:54:22;;;;;;;5.43;2.65;;;;;;;;;;5107580;28;20016;-81
2021/03/20 09:56:48;;;;;;;4.38;2.60;;;;;;;;;;5102914;28;20031;-80
2021/03/20 09:59:33;;;;;;;3.90;2.15;;;;;;;;;;5105129;28;20077;-80
2021/03/20 10:02:03;;;;;;;3.55;2.25;;;;;;;;;;5103077;28;20032;-81
2021/03/20 10:04:31;;;;;;;4.30;2.03;;;;;;;;;;5103971;28;20422;-79
2021/03/20 10:07:12;;;;;;;8.80;3.95;;;;;;;;;;5106823;28;20039;-80
2021/03/20 10:09:57;;;;;;;4.43;2.40;;;;;;;;;;5104773;28;20031;-81
2021/03/20 10:12:24;;;;;;;6.95;3.17;;;;;;;;;;5110981;28;20028;-80
2021/03/20 10:14:57;;;;;;;4.28;2.13;;;;;;;;;;5106449;28;20060;-81
2021/03/20 10:17:28;;;;;;;5.10;3.65;;;;;;;;;;5093564;28;20051;-80
2021/03/20 10:22:19;;;;;;;6.03;3.50;;;;;;;;;;5105595;27;20385;-80
2021/03/20 10:24:49;;;;;;;6.22;3.20;;;;;;;;;;5106810;28;20031;-81
2021/03/20 10:27:20;;;;;;;3.60;1.95;;;;;;;;;;5111162;28;20100;-81
2021/03/20 10:32:15;;;;;;;8.65;2.40;;;;;;;;;;5081954;28;20391;-81
2021/03/20 10:34:45;;;;;;;4.03;1.98;;;;;;;;;;5080328;28;20051;-82
2021/03/20 10:37:12;;;;;;;5.75;2.15;;;;;;;;;;5078156;28;20036;-82
2021/03/20 10:39:41;;;;;;;2.97;1.50;;;;;;;;;;5067050;28;20090;-81
2021/03/20 10:44:29;;;;;;;5.32;2.35;;;;;;;;;;5073382;28;20387;-80
2021/03/20 10:47:06;;;;;;;4.88;2.47;;;;;;;;;;5065114;28;20457;-81
2021/03/20 10:49:33;;;;;;;4.65;2.20;;;;;;;;;;5064732;28;20044;-81
2021/03/20 10:51:59;;;;;;;3.97;1.92;;;;;;;;;;5079565;28;20051;-80
2021/03/20 10:54:24;;;;;;;4.30;1.63;;;;;;;;;;5062045;28;20029;-81
2021/03/20 10:56:52;;;;;;;3.63;1.90;;;;;;;;;;5050109;28;20029;-80
2021/03/20 10:59:27;;;;;;;3.25;1.73;;;;;;;;;;5047260;28;20409;-82
2021/03/20 11:01:52;;;;;;;4.13;2.28;;;;;;;;;;5061827;28;20028;-80
2021/03/20 11:04:34;;;;;;;4.38;1.70;;;;;;;;;;5060243;28;20029;-80
2021/03/20 11:07:01;;;;;;;5.28;2.30;;;;;;;;;;5066576;28;20016;-80
2021/03/20 11:09:31;;;;;;;4.15;2.30;;;;;;;;;;5051738;28;20025;-80
2021/03/20 11:12:02;;;;;;;4.25;2.20;;;;;;;;;;5065566;28;20428;-80
2021/03/20 11:14:29;;;;;;;2.90;1.50;;;;;;;;;;5059157;28;20024;-81
2021/03/20 11:17:03;;;;;;;3.95;1.98;;;;;;;;;;5068391;28;20028;-82
2021/03/20 11:19:37;;;;;;;4.38;2.35;;;;;;;;;;5069581;28;20024;-82
2021/03/20 11:22:23;;;;;;;4.97;1.70;;;;;;;;;;5058441;28;20104;-82
2021/03/20 11:24:55;;;;;;;4.22;1.95;;;;;;;;;;5067355;28;20131;-82
2021/03/20 11:27:26;;;;;;;3.45;1.60;;;;;;;;;;5064680;28;20036;-81
2021/03/20 11:29:53;;;;;;;3.40;1.90;;;;;;;;;;5066326;28;20055;-81
2021/03/20 11:32:24;;;;;;;3.55;1.60;;;;;;;;;;5064469;28;20256;-81
2021/03/20 11:34:55;;;;;;;3.63;1.58;;;;;;;;;;5066031;28;20028;-81
2021/03/20 11:37:24;;;;;;;4.10;1.85;;;;;;;;;;5072139;28;20072;-81
2021/03/20 11:39:54;;;;;;;3.60;1.88;;;;;;;;;;5072898;28;20055;-81
2021/03/20 11:42:23;;;;;;;3.80;2.13;;;;;;;;;;5068999;28;20034;-82
2021/03/20 11:44:49;;;;;;;4.38;2.10;;;;;;;;;;5073452;28;20431;-82
2021/03/20 11:47:20;;;;;;;5.28;2.13;;;;;;;;;;5066124;28;20028;-81
2021/03/20 11:49:47;;;;;;;4.32;2.28;;;;;;;;;;5056710;28;20020;-82
2021/03/20 11:52:14;;;;;;;3.80;2.00;;;;;;;;;;5060994;28;20026;-81
2021/03/20 11:54:40;;;;;;;3.47;1.70;;;;;;;;;;5050272;28;20028;-82
2021/03/20 11:57:22;;;;;;;3.40;1.50;;;;;;;;;;5053996;28;20025;-82
2021/03/20 11:59:47;;;;;;;;;;;;;;;;;;5046680;22;20168;-78
2021/03/20 12:02:34;;;;;;;2.60;1.40;;;;;;;;;;5037346;28;19921;-80
2021/03/20 12:05:07;;;;;;;3.83;2.00;;;;;;;;;;5031744;28;20467;-81
2021/03/20 12:07:33;;;;;;;3.47;2.00;;;;;;;;;;5037620;28;20033;-82
2021/03/20 12:10:11;;;;;;;3.85;1.88;;;;;;;;;;5046297;28;20082;-82
2021/03/20 12:12:43;;;;;;;3.55;1.77;;;;;;;;;;5055068;28;20022;-81
2021/03/20 12:15:20;;;;;;;3.78;1.77;;;;;;;;;;5048001;28;20051;-81
2021/03/20 12:17:47;;;;;;;3.50;1.77;;;;;;;;;;5059191;28;20469;-79
2021/03/20 12:20:19;;;;;;;3.55;1.80;;;;;;;;;;5059683;28;20033;-81
2021/03/20 12:22:48;;;;;;;;;;;;;;;;;;5059375;28;20017;-80
2021/03/20 12:25:13;;;;;;;3.17;1.67;;;;;;;;;;5057612;28;19916;-81
2021/03/20 12:27:39;;;;;;;3.78;1.23;;;;;;;;;;5060538;28;20021;-81
2021/03/20 12:30:14;;;;;;;3.28;1.73;;;;;;;;;;5047024;28;20076;-82
2021/03/20 12:32:40;;;;;;;3.10;1.38;;;;;;;;;;5065546;28;20039;-83
2021/03/20 12:35:20;;;;;;;4.22;2.03;;;;;;;;;;5059364;28;20021;-82
2021/03/20 12:37:46;;;;;;;2.83;1.52;;;;;;;;;;5060227;28;20021;-82
2021/03/20 12:40:13;;;;;;;3.55;1.52;;;;;;;;;;5059740;28;20021;-80
2021/03/20 12:42:39;;;;;;;3.80;1.20;;;;;;;;;;5057385;28;20066;-82
2021/03/20 12:45:06;;;;;;;3.10;1.23;;;;;;;;;;5058693;28;20387;-82
2021/03/20 12:47:32;;;;;;;3.38;1.33;;;;;;;;;;5061846;28;20168;-83
2021/03/20 12:49:58;;;;;;;4.43;2.08;;;;;;;;;;5054100;28;20052;-85
2021/03/20 12:52:24;;;;;;;2.80;1.48;;;;;;;;;;5058805;28;20044;-85
2021/03/20 12:54:51;;;;;;;3.80;1.20;;;;;;;;;;5058256;28;20031;-83
2021/03/20 12:57:21;;;;;;;2.42;0.93;;;;;;;;;;5057811;28;20124;-82
2021/03/20 12:59:47;;;;;;;2.22;1.05;;;;;;;;;;5060496;28;20388;-82
2021/03/20 13:02:13;;;;;;;3.08;1.30;;;;;;;;;;5058365;28;20027;-82
2021/03/20 13:04:39;;;;;;;3.45;1.38;;;;;;;;;;5062004;28;20044;-82
2021/03/20 13:07:06;;;;;;;2.97;0.93;;;;;;;;;;5042157;28;20033;-79
2021/03/20 13:09:32;;;;;;;4.22;1.20;;;;;;;;;;5054455;28;20029;-80
2021/03/20 13:12:18;;;;;;;3.03;1.25;;;;;;;;;;5043950;28;20444;-82
2021/03/20 13:14:44;;;;;;;2.80;1.20;;;;;;;;;;5057178;28;20864;-80
2021/03/20 13:17:10;;;;;;;3.20;1.33;;;;;;;;;;5055410;28;20029;-82
2021/03/20 13:19:36;;;;;;;2.97;1.00;;;;;;;;;;5057458;28;20035;-81
2021/03/20 13:22:02;;;;;;;3.72;1.27;;;;;;;;;;5057389;28;20040;-81
2021/03/20 13:24:29;;;;;;;3.75;1.20;;;;;;;;;;5050261;28;20027;-79
2021/03/20 13:26:55;;;;;;;2.03;1.05;;;;;;;;;;5050449;28;20148;-81
2021/03/20 13:29:21;;;;;;;2.88;1.00;;;;;;;;;;5054375;28;20516;-81
2021/03/20 13:31:46;;;;;;;7.05;1.40;;;;;;;;;;5058114;28;20060;-82
2021/03/20 13:34:12;;;;;;;2.80;1.33;;;;;;;;;;5050547;28;20057;-81
2021/03/20 13:36:38;;;;;;;3.15;0.90;;;;;;;;;;5071377;28;20028;-82
2021/03/20 13:39:05;;;;;;;3.05;1.00;;;;;;;;;;5059933;28;20029;-82
2021/03/20 13:41:31;;;;;;;4.70;1.13;;;;;;;;;;5055947;28;20025;-81
2021/03/20 13:43:57;;;;;;;4.28;1.88;;;;;;;;;;5057666;28;20024;-82
2021/03/20 13:46:25;;;;;;;2.55;1.10;;;;;;;;;;5051678;28;20111;-82
2021/03/20 13:48:50;;;;;;;3.78;1.45;;;;;;;;;;5054729;28;20392;-81
2021/03/20 13:51:16;;;;;;;2.67;1.10;;;;;;;;;;5051000;28;20100;-82
2021/03/20 13:53:42;;;;;;;2.58;1.30;;;;;;;;;;5067246;28;20029;-81
2021/03/20 13:56:09;;;;;;;3.92;1.10;;;;;;;;;;5051957;28;20021;-82
2021/03/20 13:58:35;;;;;;;2.63;1.10;;;;;;;;;;5052551;28;20032;-79
2021/03/20 14:01:01;;;;;;;3.50;1.73;;;;;;;;;;5047470;28;20025;-77
2021/03/20 14:03:36;;;;;;;2.70;1.27;;;;;;;;;;5055569;28;20021;-81
2021/03/20 14:06:40;;;;;;;2.65;1.20;;;;;;;;;;5038261;28;20064;-81
2021/03/20 14:09:11;;;;;;;4.43;2.75;;;;;;;;;;5050314;28;20033;-81
2021/03/20 14:12:22;;;;;;;3.60;1.15;;;;;;;;;;4996880;28;20048;-81
2021/03/20 14:18:30;;;;;;;2.60;1.15;;;;;;;;;;5006225;28;20420;-81
2021/03/20 14:20:59;;;;;;;6.47;1.23;;;;;;;;;;5008135;28;20419;-80
2021/03/20 14:23:29;;;;;;;2.90;1.17;;;;;;;;;;5038759;28;20061;-80
2021/03/20 14:25:59;;;;;;;;;;;;;;;;;;5028828;28;20112;-79
2021/03/20 14:28:33;;;;;;;3.13;1.30;;;;;;;;;;5056086;28;19948;-81
2021/03/20 14:31:06;;;;;;;;;;;;;;;;;;5056976;28;20020;-81
2021/03/20 14:36:36;;;;;;;4.65;2.30;;;;;;;;;;5053211;28;20028;-79
2021/03/20 14:39:01;;;;;;;4.25;1.90;;;;;;;;;;5037401;28;20037;-78
2021/03/20 14:41:27;;;;;;;2.80;1.40;;;;;;;;;;5055226;28;20040;-83
2021/03/20 14:43:53;;;;;;;3.20;1.38;;;;;;;;;;5056307;28;20104;-80
2021/03/20 14:46:20;;;;;;;3.75;1.63;;;;;;;;;;5055107;28;20031;-80
2021/03/20 14:48:46;;;;;;;5.38;1.52;;;;;;;;;;5052493;28;20051;-80
2021/03/20 14:51:12;;;;;;;2.78;1.13;;;;;;;;;;5055225;28;20116;-80
2021/03/20 14:53:37;;;;;;;5.70;3.28;;;;;;;;;;5053356;28;20028;-79
2021/03/20 14:56:03;;;;;;;2.90;1.30;;;;;;;;;;5052577;28;20031;-84
2021/03/20 14:58:29;;;;;;;3.65;1.30;;;;;;;;;;5053471;28;20035;-83
2021/03/20 15:00:55;;;;;;;2.40;1.30;;;;;;;;;;5054815;28;20545;-81
2021/03/20 15:03:22;;;;;;;3.97;1.73;;;;;;;;;;5047506;28;20389;-80
2021/03/20 15:05:48;;;;;;;3.17;1.55;;;;;;;;;;5047888;28;20026;-81
2021/03/20 15:08:15;;;;;;;3.40;1.38;;;;;;;;;;5049139;28;20104;-80
2021/03/20 15:12:59;;;;;;;3.30;1.40;;;;;;;;;;5053118;28;20399;-80
2021/03/20 15:15:26;;;;;;;2.05;1.10;;;;;;;;;;5042266;28;20029;-80
2021/03/20 15:17:52;;;;;;;2.55;1.00;;;;;;;;;;5036014;28;20101;-81
2021/03/20 15:20:19;;;;;;;3.38;1.10;;;;;;;;;;5035400;28;20025;-80
2021/03/20 15:22:45;;;;;;;2.60;1.20;;;;;;;;;;5046710;28;20052;-81
2021/03/20 15:25:11;;;;;;;3.35;1.30;;;;;;;;;;5036331;28;20061;-80
2021/03/20 15:27:37;;;;;;;3.85;1.10;;;;;;;;;;5040405;28;20037;-79
2021/03/20 15:30:08;;;;;;;2.78;1.35;;;;;;;;;;5051006;28;20040;-82
2021/03/20 15:32:34;;;;;;;2.88;1.25;;;;;;;;;;5035554;28;20079;-82
2021/03/20 15:35:00;;;;;;;3.35;1.40;;;;;;;;;;5038693;28;20033;-80
2021/03/20 15:37:27;;;;;;;4.10;1.05;;;;;;;;;;5044589;28;20075;-81
2021/03/20 15:39:52;;;;;;;2.30;1.00;;;;;;;;;;5036020;28;20033;-81
2021/03/20 15:42:18;;;;;;;1.85;0.90;;;;;;;;;;5044649;28;20512;-80
2021/03/20 15:44:44;;;;;;;2.40;0.98;;;;;;;;;;5038818;28;20079;-80
2021/03/20 15:47:12;;;;;;;4.60;1.52;;;;;;;;;;5044206;28;20380;-81
2021/03/20 15:49:38;;;;;;;2.28;1.20;;;;;;;;;;5044280;28;20017;-80
2021/03/20 15:52:03;;;;;;;2.30;1.00;;;;;;;;;;5042495;28;20435;-81
2021/03/20 15:54:29;;;;;;;3.20;1.50;;;;;;;;;;5031280;28;20021;-81
2021/03/20 15:56:55;;;;;;;3.47;1.20;;;;;;;;;;5042676;28;20046;-80
2021/03/20 16:01:40;;;;;;;2.70;1.20;;;;;;;;;;5133628;27;20198;-81
2021/03/20 16:04:06;;;;;;;2.58;1.20;;;;;;;;;;5129097;27;20088;-80
2021/03/20 16:06:31;;;;;;;2.70;1.10;;;;;;;;;;5123836;28;20478;-81
2021/03/20 16:08:57;;;;;;;2.95;1.50;;;;;;;;;;5130977;28;20449;-79
2021/03/20 16:11:24;;;;;;;2.92;1.30;;;;;;;;;;5128600;28;20123;-79
2021/03/20 16:13:50;;;;;;;3.28;1.00;;;;;;;;;;5133643;28;20420;-83
2021/03/20 16:16:18;;;;;;;2.65;1.38;;;;;;;;;;5134714;27;20041;-79
2021/03/20 16:18:44;;;;;;;3.92;1.20;;;;;;;;;;5133174;27;20084;-81
2021/03/20 16:21:11;;;;;;;6.40;1.20;;;;;;;;;;5131577;28;20463;-81
2021/03/20 16:23:36;;;;;;;3.58;1.88;;;;;;;;;;5136348;27;20031;-80
2021/03/20 16:26:03;;;;;;;4.80;1.38;;;;;;;;;;5129814;28;20486;-82
2021/03/20 16:28:31;;;;;;;2.67;1.40;;;;;;;;;;5132763;28;20069;-79
2021/03/20 16:30:58;;;;;;;2.22;1.00;;;;;;;;;;5126876;27;20020;-79
2021/03/20 16:33:25;;;;;;;5.45;1.20;;;;;;;;;;5128728;28;20076;-79
2021/03/20 16:38:09;;;;;;;3.30;1.35;;;;;;;;;;5110070;27;20408;-81
2021/03/20 16:40:37;;;;;;;3.90;1.45;;;;;;;;;;5105928;28;20032;-80
2021/03/20 16:43:04;;;;;;;5.15;1.77;;;;;;;;;;5108300;28;20043;-80
2021/03/20 16:45:29;;;;;;;6.68;1.40;;;;;;;;;;5101697;28;20044;-79
2021/03/20 16:47:55;;;;;;;6.18;3.10;;;;;;;;;;5117088;28;20110;-79
2021/03/20 16:50:22;;;;;;;7.65;3.33;;;;;;;;;;5112092;28;20039;-79
2021/03/20 16:52:48;;;;;;;6.00;2.53;;;;;;;;;;5117154;28;20023;-79
2021/03/20 16:55:15;;;;;;;7.10;1.85;;;;;;;;;;5106369;27;20039;-80
2021/03/20 16:57:41;;;;;;;2.60;1.20;;;;;;;;;;5113978;28;20020;-80
2021/03/20 17:00:08;;;;;;;2.90;1.30;;;;;;;;;;5104283;28;20743;-79
2021/03/20 17:02:34;;;;;;;4.25;1.23;;;;;;;;;;5103433;27;20026;-78
2021/03/20 17:05:00;;;;;;;2.92;1.40;;;;;;;;;;5114607;28;20021;-83
2021/03/20 17:07:25;;;;;;;5.38;1.55;;;;;;;;;;5113349;28;20023;-79
2021/03/20 17:09:51;;;;;;;4.75;1.70;;;;;;;;;;5105498;28;20394;-80
2021/03/20 17:12:17;;;;;;;2.50;1.20;;;;;;;;;;5105487;28;20096;-79
2021/03/20 17:14:48;;;;;;;3.63;1.42;;;;;;;;;;5118534;28;20012;-79
2021/03/20 17:17:19;;;;;;;3.75;1.50;;;;;;;;;;5116277;28;20020;-80
2021/03/20 17:19:47;;;;;;;3.22;1.10;;;;;;;;;;5097061;28;20035;-80
2021/03/20 17:22:13;;;;;;;2.45;1.08;;;;;;;;;;5095544;28;20055;-79
2021/03/20 17:24:39;;;;;;;2.55;1.20;;;;;;;;;;5103049;28;20055;-78
2021/03/20 17:27:05;;;;;;;3.97;1.50;;;;;;;;;;5113406;28;20032;-78
2021/03/20 17:29:30;;;;;;;3.35;1.30;;;;;;;;;;5100091;28;20064;-78
2021/03/20 17:31:56;;;;;;;4.55;1.42;;;;;;;;;;5103619;28;20124;-78
2021/03/20 17:34:22;;;;;;;3.10;1.20;;;;;;;;;;5097376;28;20091;-78
2021/03/20 17:36:47;;;;;;;4.28;2.08;;;;;;;;;;5096949;28;20062;-78
2021/03/20 17:39:13;;;;;;;3.67;1.75;;;;;;;;;;5098032;28;20024;-78
2021/03/20 17:41:39;;;;;;;3.25;1.70;;;;;;;;;;5102534;28;20079;-78
2021/03/20 17:44:04;;;;;;;3.67;1.60;;;;;;;;;;5102466;28;20023;-80
2021/03/20 17:46:30;;;;;;;2.50;1.10;;;;;;;;;;5104692;27;20049;-79
2021/03/20 17:48:56;;;;;;;4.20;1.80;;;;;;;;;;5089304;28;20612;-80
2021/03/20 17:51:23;;;;;;;3.20;1.83;;;;;;;;;;5089002;28;20070;-78
2021/03/20 17:53:51;;;;;;;3.35;1.40;;;;;;;;;;5090929;28;20020;-79
2021/03/20 17:56:17;;;;;;;5.30;1.40;;;;;;;;;;5086863;28;20024;-79
2021/03/20 17:58:43;;;;;;;4.22;1.75;;;;;;;;;;5089088;28;20031;-79
2021/03/20 18:03:28;;;;;;;3.33;1.42;;;;;;;;;;5062417;28;20411;-79
2021/03/20 18:08:28;;;;;;;3.83;1.45;;;;;;;;;;5026601;28;20083;-80
2021/03/20 18:10:56;;;;;;;3.42;1.50;;;;;;;;;;5028111;28;20466;-80
2021/03/20 18:13:23;;;;;;;4.43;1.48;;;;;;;;;;5026347;28;20592;-80
2021/03/20 18:15:49;;;;;;;7.57;1.40;;;;;;;;;;5023834;28;20038;-79
2021/03/20 18:18:16;;;;;;;3.28;1.30;;;;;;;;;;5028318;28;20025;-80
2021/03/20 18:20:41;;;;;;;5.75;1.25;;;;;;;;;;5024938;28;20026;-80
2021/03/20 18:23:07;;;;;;;3.25;1.67;;;;;;;;;;5025911;28;20026;-79
2021/03/20 18:25:33;;;;;;;9.52;6.10;;;;;;;;;;5027235;28;20068;-80
2021/03/20 18:27:59;;;;;;;5.65;1.52;;;;;;;;;;5009497;28;20018;-80
2021/03/20 18:30:26;;;;;;;2.63;1.10;;;;;;;;;;5020088;28;20026;-79
2021/03/20 18:32:52;;;;;;;2.10;0.90;;;;;;;;;;5021942;28;20065;-80
2021/03/20 18:35:18;;;;;;;3.15;1.40;;;;;;;;;;5024345;28;20505;-80
2021/03/20 18:37:44;;;;;;;3.40;1.00;;;;;;;;;;5033896;28;20024;-81
2021/03/20 18:40:11;;;;;;;2.58;1.05;;;;;;;;;;5029556;28;20120;-80
2021/03/20 18:42:37;;;;;;;3.85;1.25;;;;;;;;;;5029963;28;20034;-80
2021/03/20 18:45:07;;;;;;;3.05;1.20;;;;;;;;;;5025107;28;20460;-81
2021/03/20 18:47:33;;;;;;;2.38;1.00;;;;;;;;;;5020961;28;20076;-80
2021/03/20 18:50:00;;;;;;;4.00;1.38;;;;;;;;;;5006146;28;21404;-80
2021/03/20 18:52:25;;;;;;;3.88;1.13;;;;;;;;;;5024351;28;20095;-81
2021/03/20 18:54:51;;;;;;;3.13;1.10;;;;;;;;;;5019450;28;20498;-80
2021/03/20 18:57:17;;;;;;;4.78;1.67;;;;;;;;;;5024376;28;20036;-81
2021/03/20 18:59:43;;;;;;;4.72;1.50;;;;;;;;;;5020295;28;20030;-82
2021/03/20 19:02:09;;;;;;;2.58;1.25;;;;;;;;;;5021574;28;20065;-80
2021/03/20 19:04:35;;;;;;;4.25;1.48;;;;;;;;;;5021307;28;20068;-81
2021/03/20 19:07:00;;;;;;;3.53;1.33;;;;;;;;;;5024790;28;20053;-82
2021/03/20 19:09:26;;;;;;;4.82;1.35;;;;;;;;;;5022837;28;20022;-81
2021/03/20 19:11:52;;;;;;;3.42;1.58;;;;;;;;;;5023289;28;20021;-82
2021/03/20 19:14:18;;;;;;;2.60;1.00;;;;;;;;;;5013783;28;20026;-81
2021/03/20 19:16:44;;;;;;;3.65;1.17;;;;;;;;;;5006243;28;20025;-82
2021/03/20 19:19:15;;;;;;;4.35;1.13;;;;;;;;;;5003387;28;20057;-81
2021/03/20 19:21:41;;;;;;;;;;;;;;;;;;5003064;28;20483;-82
2021/03/20 19:24:07;;;;;;;3.75;1.30;;;;;;;;;;5011635;28;19917;-81
2021/03/20 19:26:33;;;;;;;2.97;1.15;;;;;;;;;;5006830;28;20025;-81
2021/03/20 19:28:58;;;;;;;3.42;1.15;;;;;;;;;;5007417;28;20026;-82
2021/03/20 19:31:24;;;;;;;3.08;1.10;;;;;;;;;;5014674;28;20075;-81
2021/03/20 19:33:51;;;;;;;2.60;1.17;;;;;;;;;;5015950;28;20026;-81
2021/03/20 19:36:17;;;;;;;2.20;1.00;;;;;;;;;;5017663;28;20032;-81
2021/03/20 19:38:43;;;;;;;6.63;1.05;;;;;;;;;;5014069;28;20070;-81
2021/03/20 19:41:10;;;;;;;3.50;1.30;;;;;;;;;;5015364;28;20514;-81
2021/03/20 19:43:36;;;;;;;2.15;1.00;;;;;;;;;;5013352;28;20481;-81
2021/03/20 19:46:07;;;;;;;3.00;1.10;;;;;;;;;;5012945;28;20029;-82
2021/03/20 19:48:34;;;;;;;2.17;1.00;;;;;;;;;;5011179;28;20022;-81
2021/03/20 19:51:02;;;;;;;2.30;1.15;;;;;;;;;;5014437;28;20022;-81
2021/03/20 19:53:29;;;;;;;2.47;1.05;;;;;;;;;;5012467;28;20032;-81
2021/03/20 19:55:55;;;;;;;4.20;1.10;;;;;;;;;;5009356;28;20687;-81
2021/03/20 19:58:21;;;;;;;5.15;1.50;;;;;;;;;;5025037;28;20026;-82
2021/03/20 20:03:06;;;;;;;2.88;1.60;;;;;;;;;;5088085;28;20372;-80
2021/03/20 20:05:32;;;;;;;3.15;1.40;;;;;;;;;;5069916;28;20035;-80
2021/03/20 20:07:57;;;;;;;2.85;1.30;;;;;;;;;;5080761;28;20029;-81
2021/03/20 20:14:59;;;;;;;2.80;0.98;;;;;;;;;;5098127;27;20758;-81
2021/03/20 20:17:25;;;;;;;2.53;1.00;;;;;;;;;;5096255;28;20032;-80
2021/03/20 20:19:52;;;;;;;3.72;1.58;;;;;;;;;;5092015;28;20065;-80
2021/03/20 20:24:37;;;;;;;2.42;1.10;;;;;;;;;;5105999;27;20420;-80
2021/03/20 20:27:04;;;;;;;3.35;1.40;;;;;;;;;;5086913;28;20551;-80
2021/03/20 20:29:30;;;;;;;2.40;1.17;;;;;;;;;;5075647;28;20064;-80
2021/03/20 20:31:56;;;;;;;3.33;1.17;;;;;;;;;;5084493;28;20052;-80
2021/03/20 20:34:22;;;;;;;2.85;1.20;;;;;;;;;;5080374;28;20024;-80
2021/03/20 20:36:48;;;;;;;3.35;1.20;;;;;;;;;;5086159;28;20059;-80
2021/03/20 20:39:13;;;;;;;3.58;1.20;;;;;;;;;;5083521;28;20067;-80
2021/03/20 20:41:40;;;;;;;4.38;1.80;;;;;;;;;;5085317;28;20032;-80
2021/03/20 20:44:07;;;;;;;3.47;1.55;;;;;;;;;;5082653;28;20449;-82
2021/03/20 20:46:37;;;;;;;7.68;2.38;;;;;;;;;;5086159;28;20030;-80
2021/03/20 20:49:02;;;;;;;4.70;2.17;;;;;;;;;;5079361;28;20020;-80
2021/03/20 20:51:28;;;;;;;4.78;1.88;;;;;;;;;;5083512;28;20231;-80
2021/03/20 20:53:54;;;;;;;3.85;1.80;;;;;;;;;;5081628;28;20828;-80
2021/03/20 20:58:38;;;;;;;7.28;2.88;;;;;;;;;;5092267;27;20360;-81
2021/03/20 21:01:06;;;;;;;4.00;1.70;;;;;;;;;;5103278;28;20039;-81
2021/03/20 21:03:31;;;;;;;3.97;2.38;;;;;;;;;;5078727;28;20746;-80
2021/03/20 21:05:58;;;;;;;4.30;2.05;;;;;;;;;;5085519;28;20028;-81
2021/03/20 21:08:23;;;;;;;3.67;1.70;;;;;;;;;;5083707;28;20029;-81
2021/03/20 21:10:49;;;;;;;5.05;2.20;;;;;;;;;;5083794;28;20443;-81
2021/03/20 21:13:15;;;;;;;4.90;2.20;;;;;;;;;;5089303;28;20046;-83
2021/03/20 21:15:41;;;;;;;5.72;2.08;;;;;;;;;;5091222;28;20115;-83
2021/03/20 21:18:07;;;;;;;4.68;2.15;;;;;;;;;;5082867;28;20024;-83
2021/03/20 21:20:34;;;;;;;3.78;2.05;;;;;;;;;;5086215;28;20027;-83
2021/03/20 21:23:00;;;;;;;5.25;2.65;;;;;;;;;;5090038;28;20083;-84
2021/03/20 21:25:27;;;;;;;4.32;2.63;;;;;;;;;;5091831;28;20043;-83
2021/03/20 21:27:52;;;;;;;4.13;1.90;;;;;;;;;;5089084;28;20063;-83
2021/03/20 21:30:19;;;;;;;5.10;2.00;;;;;;;;;;5091480;28;20063;-83
2021/03/20 21:32:44;;;;;;;3.70;1.60;;;;;;;;;;5091588;28;20024;-83
2021/03/20 21:35:10;;;;;;;5.70;2.20;;;;;;;;;;5077794;28;20035;-83
2021/03/20 21:37:37;;;;;;;4.05;1.65;;;;;;;;;;5081009;28;20012;-83
2021/03/20 21:40:08;;;;;;;4.63;1.92;;;;;;;;;;5089027;28;20059;-82